createdAt,value
2023-03-21T00:04:27.121Z,7.00
2023-03-21T00:09:31.297Z,6.60
2023-03-21T00:14:33.883Z,6.20
2023-03-21T00:19:38.747Z,6.70
2023-03-21T00:24:41.778Z,6.63
2023-03-21T00:29:44.810Z,6.93
2023-03-21T00:35:05.142Z,6.78
2023-03-21T00:40:22.988Z,7.35
2023-03-21T00:45:28.457Z,7.38
2023-03-21T00:50:32.757Z,7.45
2023-03-21T00:55:35.850Z,7.82
2023-03-21T01:00:39.520Z,7.68
2023-03-21T01:06:04.708Z,7.50
2023-03-21T01:11:09.386Z,7.38
2023-03-21T01:16:12.414Z,8.20
2023-03-21T01:21:15.310Z,8.18
2023-03-21T01:26:18.283Z,8.07
2023-03-21T01:31:21.184Z,8.38
2023-03-21T01:36:26.430Z,7.38
2023-03-21T01:41:45.444Z,8.00
2023-03-21T01:47:13.388Z,7.13
2023-03-21T01:52:37.046Z,7.45
2023-03-21T01:57:58.467Z,6.95
2023-03-21T02:03:18.880Z,9.40
2023-03-21T02:08:39.142Z,11.05
2023-03-21T02:13:46.834Z,11.90
2023-03-21T02:18:58.670Z,12.75
2023-03-21T02:24:21.403Z,12.20
2023-03-21T02:29:44.577Z,12.18
2023-03-21T02:34:53.467Z,12.82
2023-03-21T02:39:56.473Z,13.05
2023-03-21T02:44:59.724Z,12.73
2023-03-21T02:50:04.010Z,13.25
2023-03-21T02:55:14.325Z,13.52
2023-03-21T03:00:26.629Z,16.35
2023-03-21T03:05:31.977Z,19.40
2023-03-21T03:10:39.779Z,18.83
2023-03-21T03:15:54.310Z,18.17
2023-03-21T03:21:33.604Z,19.23
2023-03-21T03:26:48.544Z,19.95
2023-03-21T03:32:10.250Z,21.95
2023-03-21T03:37:16.559Z,21.05
2023-03-21T03:42:28.483Z,19.65
2023-03-21T03:47:59.115Z,20.35
2023-03-21T03:53:18.289Z,20.40
2023-03-21T03:58:36.179Z,20.65
2023-03-21T04:03:53.037Z,21.15
2023-03-21T04:09:13.628Z,22.27
2023-03-21T04:14:22.193Z,20.30
2023-03-21T04:19:25.939Z,24.33
2023-03-21T04:24:33.528Z,21.05
2023-03-21T04:29:36.202Z,21.80
2023-03-21T04:35:17.312Z,22.67
2023-03-21T04:40:20.707Z,22.33
2023-03-21T04:45:23.636Z,22.75
2023-03-21T04:50:26.519Z,22.52
2023-03-21T04:55:29.574Z,21.33
2023-03-21T05:00:33.178Z,21.85
2023-03-21T05:05:37.575Z,22.45
2023-03-21T05:10:40.817Z,21.98
2023-03-21T05:15:43.601Z,23.33
2023-03-21T05:20:47.327Z,22.45
2023-03-21T05:25:50.989Z,21.95
2023-03-21T05:31:07.002Z,20.83
2023-03-21T05:36:10.054Z,21.50
2023-03-21T05:41:19.064Z,20.95
2023-03-21T05:46:22.511Z,21.58
2023-03-21T05:51:26.277Z,20.75
2023-03-21T05:56:29.069Z,21.85
2023-03-21T06:01:36.970Z,21.95
2023-03-21T06:06:47.873Z,20.27
2023-03-21T06:11:52.305Z,20.30
2023-03-21T06:17:02.906Z,20.08
2023-03-21T06:22:07.168Z,19.65
2023-03-21T06:27:13.112Z,19.23
2023-03-21T06:32:27.044Z,19.77
2023-03-21T06:37:34.343Z,20.65
2023-03-21T06:42:37.333Z,19.00
2023-03-21T06:47:46.423Z,21.20
2023-03-21T06:53:04.552Z,22.58
2023-03-21T06:58:27.558Z,20.65
2023-03-21T07:03:32.266Z,19.08
2023-03-21T07:08:38.737Z,20.25
2023-03-21T07:13:44.530Z,19.92
2023-03-21T07:18:47.768Z,19.23
2023-03-21T07:23:51.179Z,21.25
2023-03-21T07:28:54.170Z,20.58
2023-03-21T07:33:57.076Z,20.77
2023-03-21T07:39:02.548Z,20.52
2023-03-21T07:49:09.923Z,22.95
2023-03-21T07:54:12.840Z,23.77
2023-03-21T07:59:15.757Z,21.42
2023-03-21T08:04:18.350Z,21.67
2023-03-21T08:09:21.067Z,21.13
2023-03-21T08:14:24.089Z,21.80
2023-03-21T08:19:27.294Z,22.17
2023-03-21T08:24:30.235Z,23.42
2023-03-21T08:29:32.998Z,22.30
2023-03-21T08:34:36.108Z,22.83
2023-03-21T08:39:39.472Z,22.80
2023-03-21T08:44:42.545Z,22.63
2023-03-21T08:49:46.384Z,21.92
2023-03-21T08:54:49.322Z,20.00
2023-03-21T08:59:52.693Z,23.60
2023-03-21T09:04:59.097Z,22.13
2023-03-21T09:10:19.628Z,22.52
2023-03-21T09:15:26.393Z,22.65
2023-03-21T09:20:38.898Z,21.58
2023-03-21T09:25:47.961Z,19.60
2023-03-21T09:30:50.581Z,20.40
2023-03-21T09:35:53.931Z,19.33
2023-03-21T09:40:59.836Z,17.15
2023-03-21T09:46:08.672Z,18.00
2023-03-21T09:51:16.902Z,16.08
2023-03-21T09:56:20.212Z,16.15
2023-03-21T10:01:35.500Z,16.55
2023-03-21T10:06:43.089Z,16.63
2023-03-21T10:11:49.957Z,16.88
2023-03-21T10:16:54.360Z,17.95
2023-03-21T10:22:01.232Z,18.40
2023-03-21T10:27:05.477Z,18.05
2023-03-21T10:32:09.573Z,18.35
2023-03-21T10:37:13.113Z,18.50
2023-03-21T10:42:19.057Z,18.48
2023-03-21T10:47:23.498Z,18.85
2023-03-21T10:52:28.020Z,18.55
2023-03-21T10:57:31.241Z,17.23
2023-03-21T11:02:35.605Z,15.68
2023-03-21T11:07:38.472Z,15.43
2023-03-21T11:12:42.049Z,15.75
2023-03-21T11:17:45.663Z,15.65
2023-03-21T11:22:49.452Z,15.65
2023-03-21T11:27:53.516Z,14.57
2023-03-21T11:33:02.033Z,14.55
2023-03-21T11:38:05.804Z,14.32
2023-03-21T11:43:17.562Z,13.68
2023-03-21T11:48:20.667Z,13.57
2023-03-21T11:53:33.539Z,14.35
2023-03-21T11:58:36.362Z,14.20
2023-03-21T12:03:47.815Z,13.98
2023-03-21T12:09:07.682Z,13.80
2023-03-21T12:14:29.316Z,13.23
2023-03-21T12:19:56.934Z,13.52
2023-03-21T12:25:06.539Z,13.63
2023-03-21T12:30:28.212Z,14.07
2023-03-21T12:36:02.413Z,13.55
2023-03-21T12:41:09.668Z,14.52
2023-03-21T12:46:18.808Z,17.02
2023-03-21T12:51:24.779Z,13.82
2023-03-21T12:56:43.563Z,13.10
2023-03-21T13:01:48.622Z,14.88
2023-03-21T13:06:53.108Z,15.55
2023-03-21T13:11:59.133Z,15.23
2023-03-21T13:17:04.952Z,18.67
2023-03-21T13:22:17.536Z,15.85
2023-03-21T13:27:26.498Z,16.40
2023-03-21T13:32:31.089Z,14.68
2023-03-21T13:37:34.656Z,14.43
2023-03-21T13:42:42.898Z,16.25
2023-03-21T13:47:57.097Z,15.63
2023-03-21T13:53:19.554Z,15.90
2023-03-21T13:58:23.142Z,13.23
2023-03-21T14:03:28.713Z,13.73
2023-03-21T14:08:37.393Z,12.63
2023-03-21T14:13:50.937Z,12.43
2023-03-21T14:18:56.279Z,11.60
2023-03-21T14:24:06.843Z,10.88
2023-03-21T14:29:25.083Z,10.93
2023-03-21T14:34:30.213Z,10.88
2023-03-21T14:39:33.450Z,10.95
2023-03-21T14:44:53.920Z,9.32
2023-03-21T14:49:58.688Z,9.43
2023-03-21T14:55:02.648Z,9.98
2023-03-21T15:00:13.087Z,9.90
2023-03-21T15:05:32.767Z,9.32
2023-03-21T15:10:36.156Z,9.48
2023-03-21T15:15:39.873Z,10.68
2023-03-21T15:20:43.337Z,7.88
2023-03-21T15:25:46.196Z,8.52
2023-03-21T15:30:50.812Z,8.88
2023-03-21T15:35:57.898Z,8.13
2023-03-21T15:41:17.239Z,7.53
2023-03-21T15:46:33.221Z,10.90
2023-03-21T15:51:36.638Z,8.27
2023-03-21T15:56:42.581Z,6.75
2023-03-21T16:01:48.728Z,7.25
2023-03-21T16:06:53.816Z,7.15
2023-03-21T16:11:57.406Z,8.18
2023-03-21T16:16:59.938Z,9.07
2023-03-21T16:22:02.501Z,8.07
2023-03-21T16:27:05.134Z,8.52
2023-03-21T16:32:12.817Z,7.70
2023-03-21T16:37:19.368Z,8.73
2023-03-21T16:42:21.923Z,10.73
2023-03-21T16:47:25.196Z,9.35
2023-03-21T16:52:27.974Z,9.60
2023-03-21T16:57:33.994Z,9.52
2023-03-21T17:02:37.260Z,9.80
2023-03-21T17:07:39.984Z,11.63
2023-03-21T17:12:42.689Z,11.93
2023-03-21T17:17:46.152Z,11.05
2023-03-21T17:22:49.154Z,12.05
2023-03-21T17:27:53.432Z,11.60
2023-03-21T17:32:56.473Z,12.80
2023-03-21T17:37:59.368Z,12.43
2023-03-21T17:43:02.267Z,12.68
2023-03-21T17:48:05.413Z,13.93
2023-03-21T17:53:08.296Z,13.27
2023-03-21T17:58:12.561Z,12.68
2023-03-21T18:03:18.519Z,12.23
2023-03-21T18:08:22.341Z,12.27
2023-03-21T18:13:25.368Z,12.32
2023-03-21T18:18:28.127Z,12.98
2023-03-21T18:23:32.689Z,15.10
2023-03-21T18:28:39.594Z,14.45
2023-03-21T18:33:45.650Z,14.25
2023-03-21T18:38:48.612Z,14.27
2023-03-21T18:44:16.594Z,14.38
2023-03-21T18:49:58.857Z,24.98
2023-03-21T18:54:38.228Z,18.85
2023-03-21T18:59:41.431Z,16.55
2023-03-21T19:04:44.280Z,19.20
2023-03-21T19:10:10.660Z,15.40
2023-03-21T19:15:11.662Z,15.25
2023-03-21T19:20:15.814Z,15.02
2023-03-21T19:25:18.587Z,13.80
2023-03-21T19:30:21.635Z,13.43
2023-03-21T19:35:24.216Z,14.25
2023-03-21T19:40:26.997Z,14.57
2023-03-21T19:45:30.040Z,16.70
2023-03-21T19:50:55.408Z,15.25
2023-03-21T19:55:56.031Z,15.88
2023-03-21T20:00:59.535Z,15.85
2023-03-21T20:06:06.979Z,15.68
2023-03-21T20:11:09.799Z,16.35
2023-03-21T20:16:13.128Z,16.63
2023-03-21T20:21:18.446Z,16.85
2023-03-21T20:26:26.810Z,19.55
2023-03-21T20:31:29.958Z,18.45
2023-03-21T20:36:39.962Z,19.48
2023-03-21T20:41:43.344Z,20.98
2023-03-21T20:46:47.768Z,19.48
2023-03-21T20:52:49.304Z,18.25
2023-03-21T21:02:15.943Z,17.80
2023-03-21T21:07:21.282Z,16.00
2023-03-21T21:12:27.707Z,19.05
2023-03-21T21:17:54.542Z,17.52
2023-03-21T21:23:00.016Z,17.92
2023-03-21T21:28:03.428Z,17.10
2023-03-21T21:33:06.229Z,17.35
2023-03-21T21:38:08.779Z,17.25
2023-03-21T21:43:13.020Z,17.60
2023-03-21T21:48:16.228Z,18.63
2023-03-21T21:53:19.350Z,17.17
2023-03-21T21:58:21.883Z,18.05
2023-03-21T22:03:24.706Z,18.15
2023-03-21T22:08:27.923Z,18.70
2023-03-21T22:13:30.860Z,18.80
2023-03-21T22:18:39.850Z,19.05
2023-03-21T22:23:43.011Z,17.63
2023-03-21T22:28:45.541Z,22.58
2023-03-21T22:33:48.816Z,19.55
2023-03-21T22:38:51.688Z,20.02
2023-03-21T22:43:54.373Z,20.65
2023-03-21T22:48:57.128Z,19.55
2023-03-21T22:53:59.884Z,19.95
2023-03-21T22:59:02.515Z,19.92
2023-03-21T23:04:05.243Z,20.90
2023-03-21T23:09:09.562Z,19.55
2023-03-21T23:14:13.864Z,19.80
2023-03-21T23:19:16.633Z,19.08
2023-03-21T23:24:19.133Z,18.75
2023-03-21T23:29:21.921Z,18.55
2023-03-21T23:34:24.818Z,17.42
2023-03-21T23:39:30.412Z,18.10
2023-03-21T23:44:33.489Z,17.17
2023-03-21T23:49:39.386Z,16.38
2023-03-21T23:54:42.059Z,16.10
2023-03-21T23:59:47.173Z,16.25
